Terminal Aerodrome Forecast
Issued by NWS North Platte, NE

Home | Current Version | Previous Version | Text Only | Print | Product List | Glossary Off
Versions: 1 2 3 4 5 6 7 8 9 10 11 12 13 14

000
FTUS43 KLBF 031500 AAA
TAFVTN
TAF AMD
KVTN 031539Z 0316/0412 VRB03KT P6SM SCT050
      TEMPO 0316/0317 BKN025
     FM031700 VRB06KT P6SM SCT100=

USA.gov is the U.S. government's official web portal to all federal, state and local government web resources and services.